createdAt,value
2023-01-03T00:00:13.881Z,2.83
2023-01-03T00:03:18.207Z,2.28
2023-01-03T00:06:21.735Z,1.90
2023-01-03T00:09:24.112Z,2.03
2023-01-03T00:12:30.855Z,1.98
2023-01-03T00:15:36.503Z,1.80
2023-01-03T00:18:38.060Z,2.45
2023-01-03T00:21:39.715Z,2.25
2023-01-03T00:24:41.253Z,4.80
2023-01-03T00:27:42.784Z,10.45
2023-01-03T00:30:44.310Z,27.07
2023-01-03T00:33:45.823Z,19.93
2023-01-03T00:36:47.450Z,22.53
2023-01-03T00:39:48.996Z,7.80
2023-01-03T00:43:09.161Z,2.50
2023-01-03T00:46:11.629Z,2.30
2023-01-03T00:52:14.624Z,1.50
2023-01-03T00:55:16.225Z,1.58
2023-01-03T00:58:17.728Z,1.70
2023-01-03T01:01:22.007Z,1.70
2023-01-03T01:04:24.531Z,2.58
2023-01-03T01:07:26.048Z,3.28
2023-01-03T01:10:27.649Z,2.00
2023-01-03T01:13:32.602Z,1.63
2023-01-03T01:16:34.351Z,1.45
2023-01-03T01:19:37.939Z,1.80
2023-01-03T01:22:39.463Z,89.30
2023-01-03T01:25:40.973Z,102.28
2023-01-03T01:28:42.590Z,41.10
2023-01-03T01:31:44.761Z,26.83
2023-01-03T01:34:46.398Z,16.73
2023-01-03T01:37:47.955Z,11.52
2023-01-03T01:40:49.488Z,13.37
2023-01-03T01:44:14.835Z,12.95
2023-01-03T01:47:27.804Z,10.75
2023-01-03T01:50:58.680Z,13.05
2023-01-03T01:54:01.169Z,18.70
2023-01-03T02:00:06.283Z,14.95
2023-01-03T02:03:08.017Z,4.45
2023-01-03T02:06:10.635Z,2.78
2023-01-03T02:12:56.115Z,3.45
2023-01-03T02:15:57.571Z,10.27
2023-01-03T02:19:10.942Z,14.32
2023-01-03T02:22:31.271Z,26.50
2023-01-03T02:25:57.678Z,6.63
2023-01-03T02:29:17.859Z,19.60
2023-01-03T02:32:51.653Z,4.80
2023-01-03T02:35:55.241Z,6.38
2023-01-03T02:39:13.539Z,39.30
2023-01-03T02:42:58.641Z,17.05
2023-01-03T02:46:27.436Z,5.18
2023-01-03T02:49:58.477Z,2.63
2023-01-03T02:53:02.291Z,1.70
2023-01-03T02:56:09.619Z,1.30
2023-01-03T02:59:14.626Z,1.30
2023-01-03T03:02:16.261Z,1.50
2023-01-03T03:05:24.922Z,1.67
2023-01-03T03:08:26.442Z,1.30
2023-01-03T03:11:47.626Z,1.20
2023-01-03T03:14:50.373Z,1.35
2023-01-03T03:17:53.912Z,1.58
2023-01-03T03:21:14.022Z,1.60
2023-01-03T03:24:38.501Z,1.70
2023-01-03T03:28:01.621Z,1.35
2023-01-03T03:31:14.408Z,1.50
2023-01-03T03:34:27.893Z,1.52
2023-01-03T03:37:29.508Z,1.40
2023-01-03T03:40:51.343Z,1.30
2023-01-03T03:44:28.793Z,1.00
2023-01-03T03:47:36.162Z,1.20
2023-01-03T03:50:51.240Z,1.20
2023-01-03T03:53:52.781Z,1.25
2023-01-03T03:57:06.010Z,1.25
2023-01-03T04:00:19.577Z,1.02
2023-01-03T04:03:21.223Z,1.55
2023-01-03T04:06:28.475Z,1.53
2023-01-03T04:09:30.196Z,1.10
2023-01-03T04:12:31.727Z,1.60
2023-01-03T04:15:33.273Z,1.50
2023-01-03T04:18:34.862Z,1.17
2023-01-03T04:21:36.782Z,1.43
2023-01-03T04:24:38.369Z,1.20
2023-01-03T04:27:39.884Z,1.70
2023-01-03T04:30:41.417Z,1.52
2023-01-03T04:33:43.011Z,1.40
2023-01-03T04:36:44.568Z,0.80
2023-01-03T04:39:46.103Z,1.33
2023-01-03T04:43:06.218Z,1.65
2023-01-03T04:46:07.885Z,1.35
2023-01-03T04:49:09.724Z,1.33
2023-01-03T04:52:11.288Z,1.90
2023-01-03T04:55:13.214Z,1.25
2023-01-03T04:58:14.757Z,1.42
2023-01-03T05:01:16.405Z,3.05
2023-01-03T05:04:18.024Z,42.37
2023-01-03T05:07:19.578Z,37.67
2023-01-03T05:10:21.137Z,13.52
2023-01-03T05:13:22.778Z,6.10
2023-01-03T05:16:24.465Z,2.73
2023-01-03T05:19:26.885Z,2.17
2023-01-03T05:22:46.903Z,3.15
2023-01-03T05:25:51.329Z,3.20
2023-01-03T05:28:53.416Z,3.85
2023-01-03T05:31:55.059Z,2.53
2023-01-03T05:34:56.663Z,3.30
2023-01-03T05:37:58.167Z,2.95
2023-01-03T05:40:59.710Z,2.75
2023-01-03T05:44:01.230Z,2.03
2023-01-03T05:47:03.867Z,2.90
2023-01-03T05:53:06.985Z,2.50
2023-01-03T05:56:08.554Z,2.33
2023-01-03T05:59:10.195Z,1.55
2023-01-03T06:02:11.829Z,1.80
2023-01-03T06:05:13.467Z,3.00
2023-01-03T06:08:15.013Z,7.38
2023-01-03T06:11:17.218Z,8.13
2023-01-03T06:14:20.076Z,4.45
2023-01-03T06:17:40.142Z,2.65
2023-01-03T06:20:41.689Z,1.80
2023-01-03T06:23:43.224Z,2.10
2023-01-03T06:26:44.820Z,2.22
2023-01-03T06:29:46.393Z,1.60
2023-01-03T06:32:48.002Z,1.95
2023-01-03T06:35:49.529Z,2.10
2023-01-03T06:38:51.104Z,2.83
2023-01-03T06:41:52.627Z,3.00
2023-01-03T06:45:12.503Z,2.72
2023-01-03T06:48:32.616Z,2.63
2023-01-03T06:51:52.648Z,2.70
2023-01-03T06:54:54.266Z,2.30
2023-01-03T06:57:55.978Z,2.88
2023-01-03T07:00:57.789Z,2.47
2023-01-03T07:03:59.637Z,2.97
2023-01-03T07:07:01.362Z,3.10
2023-01-03T07:10:02.993Z,11.50
2023-01-03T07:13:23.127Z,4.83
2023-01-03T07:16:26.246Z,6.70
2023-01-03T07:19:27.924Z,4.45
2023-01-03T07:22:29.471Z,4.25
2023-01-03T07:25:31.017Z,6.70
2023-01-03T07:28:33.004Z,4.72
2023-01-03T07:31:34.910Z,2.92
2023-01-03T07:34:36.565Z,3.78
2023-01-03T07:37:38.096Z,2.85
2023-01-03T07:40:39.750Z,3.85
2023-01-03T07:43:44.265Z,4.60
2023-01-03T07:46:45.910Z,4.25
2023-01-03T07:49:47.575Z,3.30
2023-01-03T07:52:49.100Z,5.13
2023-01-03T07:55:50.656Z,5.20
2023-01-03T07:58:52.196Z,5.87
2023-01-03T08:01:53.867Z,4.00
2023-01-03T08:04:55.643Z,6.63
2023-01-03T08:07:57.177Z,5.90
2023-01-03T08:11:17.274Z,7.90
2023-01-03T08:14:23.642Z,5.72
2023-01-03T08:17:27.562Z,5.35
2023-01-03T08:20:29.160Z,4.40
2023-01-03T08:23:30.874Z,3.97
2023-01-03T08:26:32.503Z,3.03
2023-01-03T08:29:34.052Z,3.47
2023-01-03T08:32:35.616Z,2.60
2023-01-03T08:35:38.220Z,2.75
2023-01-03T08:44:45.650Z,2.65
2023-01-03T08:47:47.215Z,1.77
2023-01-03T08:50:48.854Z,6.20
2023-01-03T08:53:50.502Z,9.60
2023-01-03T08:56:52.013Z,10.60
2023-01-03T08:59:53.572Z,6.20
2023-01-03T09:02:59.739Z,5.75
2023-01-03T09:06:02.438Z,6.90
2023-01-03T09:09:05.277Z,5.78
2023-01-03T09:12:06.840Z,6.68
2023-01-03T09:15:08.875Z,4.70
2023-01-03T09:18:10.442Z,3.10
2023-01-03T09:21:12.038Z,2.85
2023-01-03T09:24:13.648Z,4.20
2023-01-03T09:27:15.162Z,3.23
2023-01-03T09:30:16.838Z,3.28
2023-01-03T09:33:18.392Z,1.80
2023-01-03T09:36:19.953Z,2.43
2023-01-03T09:39:21.630Z,2.77
2023-01-03T09:42:43.238Z,3.27
2023-01-03T09:45:50.444Z,4.22
2023-01-03T09:48:52.420Z,5.13
2023-01-03T09:52:12.592Z,6.22
2023-01-03T09:55:45.412Z,5.38
2023-01-03T09:59:10.618Z,5.32
2023-01-03T10:02:49.138Z,5.13
2023-01-03T10:06:06.199Z,5.40
2023-01-03T10:09:40.129Z,4.95
2023-01-03T10:13:20.493Z,4.80
2023-01-03T10:16:48.137Z,4.13
2023-01-03T10:20:08.741Z,3.20
2023-01-03T10:23:10.338Z,2.53
2023-01-03T10:26:11.981Z,2.83
2023-01-03T10:29:13.521Z,2.65
2023-01-03T10:32:29.033Z,4.50
2023-01-03T10:35:34.610Z,4.38
2023-01-03T10:38:42.778Z,3.63
2023-01-03T10:41:48.820Z,4.40
2023-01-03T10:44:59.700Z,3.35
2023-01-03T10:48:01.531Z,3.65
2023-01-03T10:51:21.611Z,3.35
2023-01-03T10:54:29.523Z,4.10
2023-01-03T10:57:39.187Z,3.90
2023-01-03T11:00:40.881Z,5.28
2023-01-03T11:03:51.082Z,4.78
2023-01-03T11:07:16.988Z,4.15
2023-01-03T11:10:18.962Z,3.65
2023-01-03T11:16:24.294Z,5.85
2023-01-03T11:19:27.588Z,7.80
2023-01-03T11:22:37.565Z,5.95
2023-01-03T11:25:45.326Z,4.18
2023-01-03T11:28:53.862Z,3.05
2023-01-03T11:32:07.459Z,3.65
2023-01-03T11:35:23.319Z,2.28
2023-01-03T11:38:51.007Z,2.78
2023-01-03T11:42:06.811Z,1.40
2023-01-03T11:45:33.628Z,1.35
2023-01-03T11:48:53.486Z,1.80
2023-01-03T11:52:10.101Z,1.63
2023-01-03T11:55:20.737Z,1.90
2023-01-03T11:58:37.373Z,1.60
2023-01-03T12:02:03.818Z,1.67
2023-01-03T12:05:23.344Z,1.98
2023-01-03T12:08:48.477Z,2.05
2023-01-03T12:12:11.057Z,2.55
2023-01-03T12:18:49.055Z,2.08
2023-01-03T12:22:02.949Z,1.90
2023-01-03T12:25:16.458Z,2.20
2023-01-03T12:28:28.074Z,2.58
2023-01-03T12:31:33.171Z,1.80
2023-01-03T12:34:43.074Z,1.90
2023-01-03T12:37:45.067Z,2.00
2023-01-03T12:40:58.937Z,2.13
2023-01-03T12:44:08.129Z,1.67
2023-01-03T12:47:31.906Z,1.50
2023-01-03T12:50:39.588Z,1.60
2023-01-03T12:53:47.371Z,1.70
2023-01-03T12:57:47.536Z,1.77
2023-01-03T13:00:59.851Z,2.25
2023-01-03T13:04:11.807Z,2.50
2023-01-03T13:07:25.239Z,3.95
2023-01-03T13:10:28.438Z,4.20
2023-01-03T13:13:30.448Z,4.00
2023-01-03T13:16:48.849Z,8.00
2023-01-03T13:20:09.860Z,8.75
2023-01-03T13:23:34.322Z,7.93
2023-01-03T13:26:35.902Z,5.95
2023-01-03T13:29:41.831Z,5.67
2023-01-03T13:32:51.381Z,6.15
2023-01-03T13:35:57.626Z,4.60
2023-01-03T13:38:59.167Z,3.10
2023-01-03T13:42:01.119Z,4.60
2023-01-03T13:45:23.894Z,4.30
2023-01-03T13:51:34.524Z,4.95
2023-01-03T13:54:54.800Z,4.03
2023-01-03T13:57:56.320Z,3.13
2023-01-03T14:01:06.243Z,2.30
2023-01-03T14:04:26.514Z,3.45
2023-01-03T14:07:49.566Z,4.22
2023-01-03T14:11:33.680Z,3.30
2023-01-03T14:14:37.559Z,3.45
2023-01-03T14:17:39.122Z,2.78
2023-01-03T14:20:43.719Z,2.77
2023-01-03T14:24:01.861Z,4.50
2023-01-03T14:27:17.003Z,8.13
2023-01-03T14:30:24.151Z,4.78
2023-01-03T14:33:31.438Z,5.88
2023-01-03T14:36:32.986Z,8.05
2023-01-03T14:42:34.888Z,9.63
2023-01-03T14:45:36.409Z,4.13
2023-01-03T14:48:38.026Z,5.67
2023-01-03T14:51:39.544Z,5.60
2023-01-03T14:54:44.256Z,8.67
2023-01-03T14:57:46.663Z,6.43
2023-01-03T15:00:48.234Z,5.65
2023-01-03T15:03:50.025Z,5.23
2023-01-03T15:07:09.494Z,3.17
2023-01-03T15:13:23.378Z,2.55
2023-01-03T15:16:28.763Z,2.88
2023-01-03T15:19:30.611Z,2.90
2023-01-03T15:22:50.538Z,3.00
2023-01-03T15:25:53.163Z,7.10
2023-01-03T15:28:56.316Z,14.40
2023-01-03T15:31:58.600Z,7.90
2023-01-03T15:35:00.273Z,3.60
2023-01-03T15:38:01.997Z,3.17
2023-01-03T15:41:40.247Z,2.40
2023-01-03T15:44:41.887Z,2.63
2023-01-03T15:47:43.478Z,3.20
2023-01-03T15:50:48.232Z,2.87
2023-01-03T15:53:49.863Z,3.13
2023-01-03T15:56:55.223Z,16.40
2023-01-03T15:59:58.862Z,6.00
2023-01-03T16:03:01.799Z,4.53
2023-01-03T16:06:03.605Z,2.65
2023-01-03T16:09:05.103Z,2.93
2023-01-03T16:12:07.254Z,2.30
2023-01-03T16:15:11.577Z,2.58
2023-01-03T16:18:14.376Z,2.80
2023-01-03T16:21:15.908Z,3.35
2023-01-03T16:24:18.137Z,3.63
2023-01-03T16:27:21.884Z,4.30
2023-01-03T16:30:24.599Z,5.68
2023-01-03T16:33:28.655Z,8.35
2023-01-03T16:36:37.373Z,4.25
2023-01-03T16:39:45.691Z,7.72
2023-01-03T16:42:49.608Z,4.95
2023-01-03T16:45:51.811Z,3.43
2023-01-03T16:48:54.170Z,3.53
2023-01-03T16:51:57.959Z,5.43
2023-01-03T16:55:10.056Z,5.28
2023-01-03T16:58:12.828Z,6.90
2023-01-03T17:01:14.719Z,6.53
2023-01-03T17:04:17.382Z,8.00
2023-01-03T17:10:23.673Z,5.47
2023-01-03T17:13:32.931Z,5.13
2023-01-03T17:16:35.676Z,4.38
2023-01-03T17:20:06.964Z,5.55
2023-01-03T17:23:00.122Z,5.25
2023-01-03T17:26:02.012Z,5.55
2023-01-03T17:29:04.998Z,4.57
2023-01-03T17:32:17.460Z,4.72
2023-01-03T17:35:19.386Z,5.60
2023-01-03T17:38:26.220Z,4.30
2023-01-03T17:41:28.857Z,4.40
2023-01-03T17:44:30.636Z,4.60
2023-01-03T17:47:52.061Z,5.63
2023-01-03T17:50:53.737Z,4.88
2023-01-03T17:53:55.943Z,4.37
2023-01-03T17:56:58.451Z,5.82
2023-01-03T18:00:00.228Z,6.15
2023-01-03T18:03:02.272Z,5.63
2023-01-03T18:06:06.918Z,6.07
2023-01-03T18:09:12.280Z,5.18
2023-01-03T18:12:18.316Z,5.35
2023-01-03T18:15:21.328Z,5.72
2023-01-03T18:18:23.965Z,5.18
2023-01-03T18:24:31.233Z,5.40
2023-01-03T18:27:32.858Z,6.70
2023-01-03T18:30:34.705Z,5.38
2023-01-03T18:33:36.594Z,5.70
2023-01-03T18:36:43.190Z,7.57
2023-01-03T18:39:44.927Z,6.60
2023-01-03T18:43:05.677Z,5.90
2023-01-03T18:46:15.026Z,6.40
2023-01-03T18:49:16.876Z,7.40
2023-01-03T18:52:36.852Z,7.93
2023-01-03T18:55:38.495Z,7.55
2023-01-03T18:58:40.144Z,5.72
2023-01-03T19:01:41.774Z,8.50
2023-01-03T19:04:49.217Z,7.68
2023-01-03T19:07:53.027Z,7.53
2023-01-03T19:10:54.643Z,9.50
2023-01-03T19:13:59.951Z,9.25
2023-01-03T19:17:01.536Z,7.93
2023-01-03T19:20:03.212Z,6.07
2023-01-03T19:23:04.758Z,6.57
2023-01-03T19:26:06.445Z,6.47
2023-01-03T19:29:10.671Z,6.70
2023-01-03T19:32:19.603Z,6.07
2023-01-03T19:35:22.026Z,6.00
2023-01-03T19:38:23.695Z,5.85
2023-01-03T19:41:25.240Z,4.80
2023-01-03T19:44:26.822Z,7.05
2023-01-03T19:47:28.489Z,5.80
2023-01-03T19:50:34.302Z,4.20
2023-01-03T19:53:35.893Z,4.72
2023-01-03T19:56:37.419Z,4.63
2023-01-03T19:59:39.038Z,6.80
2023-01-03T20:02:41.074Z,6.38
2023-01-03T20:05:42.866Z,7.47
2023-01-03T20:08:44.430Z,9.02
2023-01-03T20:11:50.563Z,6.88
2023-01-03T20:14:52.726Z,8.63
2023-01-03T20:17:54.468Z,9.88
2023-01-03T20:20:58.996Z,7.23
2023-01-03T20:24:01.735Z,5.13
2023-01-03T20:30:13.573Z,5.85
2023-01-03T20:33:15.125Z,16.67
2023-01-03T20:36:41.744Z,11.27
2023-01-03T20:39:43.425Z,12.85
2023-01-03T20:42:45.214Z,15.82
2023-01-03T20:45:47.585Z,14.57
2023-01-03T20:49:00.157Z,15.18
2023-01-03T20:52:01.707Z,13.70
2023-01-03T20:55:03.297Z,12.52
2023-01-03T20:58:04.847Z,10.80
2023-01-03T21:01:09.558Z,12.82
2023-01-03T21:04:12.460Z,9.90
2023-01-03T21:07:48.150Z,8.90
2023-01-03T21:10:52.940Z,11.52
2023-01-03T21:13:55.414Z,17.63
2023-01-03T21:16:57.098Z,16.98
2023-01-03T21:19:58.682Z,15.70
2023-01-03T21:23:00.243Z,11.15
2023-01-03T21:26:01.894Z,10.05
2023-01-03T21:29:03.531Z,10.60
2023-01-03T21:32:05.622Z,7.07
2023-01-03T21:35:09.577Z,8.13
2023-01-03T21:38:11.167Z,7.72
2023-01-03T21:41:20.363Z,11.25
2023-01-03T21:44:21.932Z,12.20
2023-01-03T21:47:23.534Z,11.50
2023-01-03T21:50:25.385Z,6.10
2023-01-03T21:53:27.005Z,10.07
2023-01-03T21:56:28.529Z,9.05
2023-01-03T21:59:30.320Z,9.60
2023-01-03T22:02:53.405Z,10.57
2023-01-03T22:06:10.785Z,7.75
2023-01-03T22:09:32.281Z,8.50
2023-01-03T22:12:33.827Z,8.27
2023-01-03T22:15:36.425Z,9.40
2023-01-03T22:18:37.940Z,7.75
2023-01-03T22:21:39.447Z,7.63
2023-01-03T22:24:40.965Z,8.13
2023-01-03T22:27:43.185Z,7.40
2023-01-03T22:30:44.734Z,8.57
2023-01-03T22:33:46.944Z,9.65
2023-01-03T22:36:48.470Z,8.57
2023-01-03T22:39:49.971Z,7.00
2023-01-03T22:42:51.488Z,7.03
2023-01-03T22:45:53.042Z,7.45
2023-01-03T22:48:54.925Z,9.57
2023-01-03T22:51:56.490Z,4.72
2023-01-03T22:54:58.368Z,5.72
2023-01-03T22:57:59.968Z,3.60
2023-01-03T23:01:08.552Z,5.07
2023-01-03T23:04:10.332Z,11.77
2023-01-03T23:07:11.992Z,9.33
2023-01-03T23:10:13.580Z,8.38
2023-01-03T23:13:15.119Z,5.50
2023-01-03T23:16:16.687Z,16.40
2023-01-03T23:19:19.979Z,4.38
2023-01-03T23:22:21.509Z,4.88
2023-01-03T23:25:23.173Z,58.35
2023-01-03T23:28:24.686Z,10.50
2023-01-03T23:31:27.460Z,6.13
2023-01-03T23:34:29.899Z,5.38
2023-01-03T23:37:31.748Z,5.03
2023-01-03T23:40:33.276Z,3.90
2023-01-03T23:43:34.793Z,8.35
2023-01-03T23:46:36.349Z,4.45
2023-01-03T23:49:37.856Z,4.00
2023-01-03T23:52:39.370Z,3.88
2023-01-03T23:55:40.883Z,3.08
2023-01-03T23:58:42.459Z,2.80
